EW8775 Weather Reports


Display with metric or nautical units.
time (UTC)temp
F
wind
direction
speed
MPH
gust
MPH
rain 1hr
in
rain 24hr
in
rain mn
in
humidity
%
barometer
mb
20190216000016 48 202 10.0 20.0 0.00 0.21 0.06 46 1001.7
20190215233017 48 202 11.0 22.0 0.00 0.24 0.06 43 1001.8
20190215230017 49 202 10.0 21.0 0.00 0.26 0.06 44 1002.1
20190215223017 50 180 9.0 19.0 0.00 0.28 0.06 43 1002.6
20190215220017 50 180 8.0 15.0 0.00 0.29 0.06 40 1002.6
20190215213017 50 180 8.0 18.0 0.00 0.35 0.06 40 1002.5
20190215210017 49 180 9.0 19.0 0.00 0.41 0.06 42 1003.3
20190215203016 46 180 10.0 27.0 0.00 0.42 0.06 44 1003.8
20190215200017 47 180 9.0 20.0 0.00 0.42 0.06 45 1004.5
20190215193018 46 157 7.0 18.0 0.00 0.42 0.06 52 1005.3
20190215190016 44 135 5.0 15.0 0.00 0.42 0.06 54 1005.9
20190215183016 43 135 7.0 18.0 0.00 0.42 0.06 58 1006.4
20190215180017 42 157 8.0 18.0 0.00 0.42 0.06 65 1006.8
20190215173017 42 135 8.0 17.0 0.00 0.42 0.06 64 1006.7
20190215170016 41 180 4.0 15.0 0.00 0.42 0.06 68 1006.2
20190215163016 40 180 4.0 11.0 0.00 0.42 0.06 71 1006.5
20190215160016 39 157 7.0 17.0 0.00 0.42 0.06 73 1006.0
20190215153016 39 157 10.0 22.0 0.00 0.42 0.06 74 1005.7
20190215150016 38 135 8.0 17.0 0.00 0.42 0.06 77 1005.4
20190215143016 38 135 7.0 15.0 0.00 0.42 0.06 77 1005.2
20190215140016 38 135 7.0 16.0 0.00 0.42 0.06 78 1004.9
20190215133016 39 135 7.0 17.0 0.00 0.42 0.06 78 1005.0
20190215130015 38 135 6.0 14.0 0.00 0.42 0.06 79 1004.5
20190215123015 39 157 6.0 13.0 0.00 0.42 0.06 80 1004.4
20190215120018 38 135 7.0 18.0 0.00 0.42 0.06 81 1003.7
20190215113015 39 135 6.0 18.0 0.00 0.42 0.06 80 1003.4
20190215110015 39 135 6.0 13.0 0.00 0.42 0.06 80 1002.8
20190215103016 39 135 6.0 12.0 0.00 0.42 0.06 81 1003.2
20190215100016 39 135 4.0 11.0 0.00 0.42 0.06 81 1002.4
20190215093015 40 135 5.0 12.0 0.00 0.42 0.06 81 1002.3
20190215090015 40 135 6.0 15.0 0.00 0.42 0.06 81 1001.8
20190215083016 40 135 4.0 11.0 0.00 0.42 0.06 78 1001.3
20190215080015 39 180 4.0 11.0 0.01 0.42 0.06 80 1000.9
20190215073015 39 112 5.0 13.0 0.06 0.42 0.06 81 999.6
20190215070016 39 180 6.0 16.0 0.06 0.41 0.06 82 999.2
20190215063016 43 180 7.0 25.0 0.00 0.35 0.35 76 999.0
20190215060016 43 135 7.0 19.0 0.00 0.38 0.35 77 998.5
20190215053015 43 157 8.0 21.0 0.01 0.43 0.35 80 998.2
20190215050016 43 157 8.0 24.0 0.06 0.49 0.35 81 997.8
20190215043015 40 135 6.0 17.0 0.12 0.50 0.34 86 997.6
20190215040015 41 157 4.0 11.0 0.06 0.46 0.28 86 996.7
20190215033016 39 45 2.0 6.0 0.00 0.44 0.22 91 995.5
20190215030017 38 22 2.0 8.0 0.00 0.48 0.22 92 995.6
20190215023016 39 202 2.0 6.0 0.00 0.54 0.22 92 996.6
20190215020015 39 180 4.0 10.0 0.00 0.56 0.22 92 996.7
20190215013015 39 135 2.0 7.0 0.00 0.58 0.22 93 996.9
20190215010015 39 202 3.0 10.0 0.01 0.61 0.22 93 997.2
20190215003015 39 180 1.0 6.0 0.04 0.63 0.22 93 998.3